createdAt,value
2023-02-07T00:00:00.928Z,12.00
2023-02-07T00:10:01.108Z,10.10
2023-02-07T00:20:01.018Z,8.90
2023-02-07T00:30:01.279Z,10.80
2023-02-07T00:40:01.171Z,11.00
2023-02-07T00:50:01.564Z,7.60
2023-02-07T01:10:01.606Z,7.10
2023-02-07T01:20:01.314Z,8.20
2023-02-07T01:30:02.852Z,7.10
2023-02-07T01:40:01.501Z,7.80
2023-02-07T01:50:01.249Z,8.00
2023-02-07T02:00:01.074Z,5.80
2023-02-07T02:10:01.105Z,6.90
2023-02-07T02:20:00.281Z,8.20
2023-02-07T02:30:02.443Z,8.40
2023-02-07T02:40:01.058Z,8.20
2023-02-07T02:50:01.079Z,5.70
2023-02-07T03:00:02.101Z,6.40
2023-02-07T03:10:01.046Z,8.20
2023-02-07T03:20:01.254Z,8.70
2023-02-07T03:30:01.119Z,7.00
2023-02-07T03:40:01.698Z,10.50
2023-02-07T03:50:01.814Z,8.50
2023-02-07T04:00:02.832Z,8.30
2023-02-07T04:10:01.122Z,9.00
2023-02-07T04:20:01.320Z,7.70
2023-02-07T04:30:01.381Z,7.90
2023-02-07T04:40:01.044Z,4.90
2023-02-07T04:50:01.272Z,4.20
2023-02-07T05:00:01.992Z,3.30
2023-02-07T05:10:01.135Z,9.30
2023-02-07T05:20:01.917Z,10.50
2023-02-07T05:30:01.111Z,7.40
2023-02-07T05:40:01.092Z,7.30
2023-02-07T05:50:01.312Z,10.80
2023-02-07T06:00:01.040Z,7.00
2023-02-07T06:10:01.952Z,7.50
2023-02-07T06:20:01.059Z,7.50
2023-02-07T06:30:01.977Z,8.20
2023-02-07T06:40:01.955Z,8.00
2023-02-07T06:50:01.935Z,6.30
2023-02-07T07:00:01.527Z,9.40
2023-02-07T07:10:01.174Z,10.00
2023-02-07T07:20:02.347Z,12.30
2023-02-07T07:30:01.813Z,9.40
2023-02-07T07:40:01.054Z,10.80
2023-02-07T07:50:03.193Z,9.20
2023-02-07T08:00:01.087Z,11.20
2023-02-07T08:10:01.596Z,13.60
2023-02-07T08:20:01.493Z,12.50
2023-02-07T08:30:02.820Z,9.60
2023-02-07T08:40:02.358Z,10.10
2023-02-07T08:50:01.372Z,11.90
2023-02-07T09:00:02.567Z,11.80
2023-02-07T09:10:01.213Z,10.80
2023-02-07T09:20:01.664Z,11.00
2023-02-07T09:30:01.063Z,10.60
2023-02-07T09:40:01.524Z,12.50
2023-02-07T09:50:01.300Z,12.00
2023-02-07T10:00:01.075Z,11.20
2023-02-07T10:10:01.036Z,14.10
2023-02-07T10:20:01.694Z,14.50
2023-02-07T10:30:02.314Z,20.50
2023-02-07T10:40:01.222Z,18.10
2023-02-07T10:50:02.376Z,17.50
2023-02-07T11:00:03.236Z,17.50
2023-02-07T11:10:01.024Z,45.40
2023-02-07T11:20:01.753Z,68.80
2023-02-07T11:30:01.490Z,68.80
2023-02-07T11:40:01.353Z,93.70
2023-02-07T11:50:01.949Z,88.00
2023-02-07T12:00:01.240Z,61.80
2023-02-07T12:10:01.290Z,85.10
2023-02-07T12:20:03.500Z,57.30
2023-02-07T12:30:01.071Z,56.40
2023-02-07T12:40:01.606Z,64.70
2023-02-07T12:50:03.838Z,42.40
2023-02-07T13:00:01.310Z,45.20
2023-02-07T13:10:03.646Z,45.10
2023-02-07T13:20:00.310Z,48.40
2023-02-07T13:30:01.086Z,25.60
2023-02-07T13:40:01.087Z,28.60
2023-02-07T13:50:01.519Z,188.10
2023-02-07T14:00:03.404Z,86.10
2023-02-07T14:10:01.151Z,67.20
2023-02-07T14:20:03.469Z,51.30
2023-02-07T14:30:01.488Z,59.90
2023-02-07T14:40:01.945Z,75.50
2023-02-07T14:50:01.368Z,98.20
2023-02-07T15:00:01.122Z,61.60
2023-02-07T15:10:01.178Z,72.80
2023-02-07T15:20:01.812Z,46.90
2023-02-07T15:30:01.906Z,46.60
2023-02-07T15:40:01.073Z,49.20
2023-02-07T16:00:01.116Z,54.80
2023-02-07T16:10:01.233Z,56.30
2023-02-07T16:20:01.530Z,58.10
2023-02-07T16:30:01.259Z,25.50
2023-02-07T16:40:02.739Z,21.40
2023-02-07T16:50:01.556Z,33.80
2023-02-07T17:00:03.739Z,33.00
2023-02-07T17:10:01.347Z,56.20
2023-02-07T17:20:02.013Z,15.60
2023-02-07T17:30:02.067Z,14.00
2023-02-07T17:40:02.275Z,19.10
2023-02-07T17:50:00.841Z,13.60
2023-02-07T18:00:02.770Z,13.00
2023-02-07T18:10:02.307Z,19.10
2023-02-07T18:20:01.039Z,15.10
2023-02-07T18:30:02.019Z,8.40
2023-02-07T18:40:02.661Z,8.40
2023-02-07T18:50:01.340Z,7.60
2023-02-07T19:00:01.307Z,9.90
2023-02-07T19:10:01.528Z,7.10
2023-02-07T19:20:01.940Z,8.40
2023-02-07T19:30:02.381Z,6.40
2023-02-07T19:40:02.354Z,8.30
2023-02-07T19:50:01.338Z,8.40
2023-02-07T20:00:01.099Z,7.60
2023-02-07T20:10:02.345Z,7.70
2023-02-07T20:20:01.485Z,7.90
2023-02-07T20:30:02.711Z,7.90
2023-02-07T20:40:01.743Z,7.20
2023-02-07T20:50:01.064Z,7.30
2023-02-07T21:00:02.450Z,6.50
2023-02-07T21:10:01.067Z,7.30
2023-02-07T21:20:01.341Z,6.50
2023-02-07T21:30:03.215Z,6.90
2023-02-07T21:40:01.261Z,8.70
2023-02-07T21:50:00.275Z,7.60
2023-02-07T22:00:01.451Z,8.20
2023-02-07T22:10:01.029Z,7.40
2023-02-07T22:20:03.317Z,10.30
2023-02-07T22:30:03.344Z,6.90
2023-02-07T22:40:01.571Z,4.70
2023-02-07T22:50:00.280Z,6.20
2023-02-07T23:00:01.634Z,5.30
2023-02-07T23:10:01.400Z,4.70
2023-02-07T23:20:01.920Z,6.00
2023-02-07T23:30:01.887Z,5.80
2023-02-07T23:40:01.080Z,5.10
2023-02-07T23:50:01.314Z,8.10
